createdAt,value
2019-05-26T00:00:31.103Z,9.27
2019-05-26T00:03:25.929Z,11.17
2019-05-26T00:06:13.159Z,10.30
2019-05-26T00:09:00.410Z,10.30
2019-05-26T00:11:48.382Z,10.17
2019-05-26T00:14:35.190Z,9.77
2019-05-26T00:17:22.956Z,11.20
2019-05-26T00:20:10.045Z,11.97
2019-05-26T00:23:04.038Z,10.83
2019-05-26T00:25:50.956Z,11.30
2019-05-26T00:28:38.176Z,10.80
2019-05-26T00:31:39.570Z,10.23
2019-05-26T00:34:41.117Z,10.33
2019-05-26T00:37:28.739Z,11.97
2019-05-26T00:40:29.978Z,9.90
2019-05-26T00:43:24.872Z,11.27
2019-05-26T00:46:11.803Z,15.47
2019-05-26T00:49:12.765Z,10.27
2019-05-26T00:52:06.901Z,13.00
2019-05-26T00:58:02.060Z,10.63
2019-05-26T01:00:50.482Z,9.73
2019-05-26T01:03:37.999Z,11.18
2019-05-26T01:06:24.813Z,11.27
2019-05-26T01:09:12.450Z,10.37
2019-05-26T01:12:08.459Z,14.87
2019-05-26T01:14:53.656Z,10.13
2019-05-26T01:17:40.707Z,12.43
2019-05-26T01:20:29.514Z,14.85
2019-05-26T01:23:16.599Z,11.50
2019-05-26T01:26:03.730Z,10.33
2019-05-26T01:32:11.078Z,10.87
2019-05-26T01:34:57.934Z,12.53
2019-05-26T01:37:45.542Z,11.73
2019-05-26T01:40:36.444Z,13.70
2019-05-26T01:49:50.293Z,11.17
2019-05-26T01:55:44.707Z,12.33
2019-05-26T01:58:49.103Z,10.57
2019-05-26T02:01:36.200Z,12.30
2019-05-26T02:04:37.598Z,12.40
2019-05-26T02:07:28.382Z,12.47
2019-05-26T02:10:15.689Z,12.03
2019-05-26T02:13:04.436Z,10.77
2019-05-26T02:15:52.373Z,13.80
2019-05-26T02:18:41.435Z,12.30
2019-05-26T02:21:28.383Z,12.60
2019-05-26T02:24:15.790Z,15.68
2019-05-26T02:27:03.809Z,13.87
2019-05-26T02:29:52.376Z,12.90
2019-05-26T02:32:39.477Z,13.30
2019-05-26T02:35:30.392Z,10.30
2019-05-26T02:38:26.311Z,12.20
2019-05-26T02:41:11.183Z,11.87
2019-05-26T02:44:12.709Z,12.17
2019-05-26T02:46:59.964Z,14.10
2019-05-26T02:49:47.144Z,13.07
2019-05-26T02:52:37.739Z,15.90
2019-05-26T02:55:25.792Z,13.53
2019-05-26T02:58:12.663Z,12.43
2019-05-26T03:00:59.941Z,11.50
2019-05-26T03:03:47.990Z,11.90
2019-05-26T03:09:41.225Z,12.20
2019-05-26T03:12:28.443Z,12.67
2019-05-26T03:15:18.931Z,11.93
2019-05-26T03:18:06.856Z,11.33
2019-05-26T03:21:01.442Z,12.53
2019-05-26T03:23:48.270Z,12.37
2019-05-26T03:26:36.389Z,12.27
2019-05-26T03:29:23.233Z,11.70
2019-05-26T03:32:10.455Z,13.27
2019-05-26T03:34:57.964Z,13.30
2019-05-26T03:40:51.516Z,11.47
2019-05-26T03:43:39.144Z,10.13
2019-05-26T03:46:25.992Z,13.13
2019-05-26T03:49:13.084Z,10.60
2019-05-26T03:52:02.022Z,11.53
2019-05-26T03:57:56.311Z,14.60
2019-05-26T04:00:43.234Z,14.85
2019-05-26T04:03:30.034Z,13.73
2019-05-26T04:06:17.206Z,13.10
2019-05-26T04:09:06.523Z,12.40
2019-05-26T04:12:08.368Z,14.53
2019-05-26T04:14:55.087Z,14.73
2019-05-26T04:17:49.571Z,13.50
2019-05-26T04:20:38.116Z,15.50
2019-05-26T04:23:25.143Z,15.00
2019-05-26T04:26:15.825Z,12.67
2019-05-26T04:29:02.737Z,13.27
2019-05-26T04:31:49.826Z,12.13
2019-05-26T04:34:37.578Z,15.27
2019-05-26T04:37:26.307Z,15.77
2019-05-26T04:40:26.692Z,14.10
2019-05-26T04:43:04.277Z,12.20
2019-05-26T04:45:51.619Z,10.80
2019-05-26T04:48:38.798Z,13.82
2019-05-26T04:51:25.818Z,13.53
2019-05-26T04:54:13.420Z,9.83
2019-05-26T04:57:00.354Z,11.57
2019-05-26T04:59:47.165Z,13.27
2019-05-26T05:02:35.481Z,12.80
2019-05-26T05:05:23.416Z,9.57
2019-05-26T05:11:23.640Z,13.30
2019-05-26T05:14:11.576Z,11.77
2019-05-26T05:16:58.894Z,14.95
2019-05-26T05:19:46.420Z,14.60
2019-05-26T05:22:33.682Z,14.60
2019-05-26T05:28:26.932Z,13.23
2019-05-26T05:31:13.641Z,11.57
2019-05-26T05:34:00.815Z,11.50
2019-05-26T05:36:47.647Z,11.80
2019-05-26T05:42:41.530Z,12.60
2019-05-26T05:45:28.410Z,11.68
2019-05-26T05:54:33.887Z,13.10
2019-05-26T05:57:20.742Z,11.50
2019-05-26T06:00:07.523Z,11.50
2019-05-26T06:02:55.143Z,11.40
2019-05-26T06:05:42.126Z,11.30
2019-05-26T06:08:30.566Z,11.45
2019-05-26T06:11:17.551Z,9.48
2019-05-26T06:14:04.882Z,11.57
2019-05-26T06:16:52.051Z,11.25
2019-05-26T06:19:39.161Z,13.70
2019-05-26T06:22:26.608Z,11.25
2019-05-26T06:25:14.424Z,12.70
2019-05-26T06:28:01.678Z,10.50
2019-05-26T06:30:48.751Z,9.60
2019-05-26T06:33:36.994Z,9.13
2019-05-26T06:36:25.662Z,9.85
2019-05-26T06:39:12.682Z,8.52
2019-05-26T06:42:00.508Z,11.85
2019-05-26T06:44:53.401Z,9.13
2019-05-26T06:47:34.454Z,8.50
2019-05-26T06:50:21.763Z,11.77
2019-05-26T06:53:09.065Z,10.52
2019-05-26T06:56:03.446Z,7.05
2019-05-26T06:58:54.482Z,8.23
2019-05-26T07:01:41.437Z,12.20
2019-05-26T07:04:28.801Z,8.13
2019-05-26T07:07:18.179Z,10.32
2019-05-26T07:10:05.454Z,11.05
2019-05-26T07:12:52.999Z,7.90
2019-05-26T07:15:43.441Z,7.68
2019-05-26T07:18:30.831Z,9.15
2019-05-26T07:21:17.567Z,7.95
2019-05-26T07:24:04.504Z,8.98
2019-05-26T07:26:58.826Z,8.80
2019-05-26T07:29:45.858Z,6.72
2019-05-26T07:32:33.047Z,8.30
2019-05-26T07:35:20.545Z,8.57
2019-05-26T07:38:07.250Z,7.47
2019-05-26T07:40:54.417Z,7.20
2019-05-26T07:43:55.735Z,8.35
2019-05-26T07:46:42.632Z,8.90
2019-05-26T07:49:29.704Z,6.03
2019-05-26T07:52:16.616Z,9.43
2019-05-26T07:55:17.916Z,6.50
2019-05-26T07:58:04.927Z,5.15
2019-05-26T08:00:52.979Z,5.87
2019-05-26T08:03:39.951Z,5.35
2019-05-26T08:06:41.541Z,5.22
2019-05-26T08:09:29.384Z,4.82
2019-05-26T08:12:25.997Z,4.15
2019-05-26T08:15:03.713Z,5.37
2019-05-26T08:17:50.747Z,4.72
2019-05-26T08:20:38.123Z,4.82
2019-05-26T08:23:25.461Z,4.78
2019-05-26T08:26:26.912Z,6.03
2019-05-26T08:29:28.271Z,5.22
2019-05-26T08:32:15.495Z,4.53
2019-05-26T08:35:02.368Z,3.95
2019-05-26T08:37:49.930Z,3.42
2019-05-26T08:40:36.945Z,5.78
2019-05-26T08:43:23.607Z,5.07
2019-05-26T08:46:10.266Z,6.35
2019-05-26T08:48:57.302Z,6.85
2019-05-26T08:51:44.470Z,5.17
2019-05-26T08:54:31.373Z,4.80
2019-05-26T08:57:19.601Z,5.95
2019-05-26T09:00:09.087Z,5.18
2019-05-26T09:02:57.214Z,6.47
2019-05-26T09:05:45.963Z,4.87
2019-05-26T09:08:33.106Z,6.53
2019-05-26T09:11:21.118Z,6.93
2019-05-26T09:14:08.109Z,6.95
2019-05-26T09:16:55.374Z,5.20
2019-05-26T09:19:42.196Z,6.47
2019-05-26T09:22:38.014Z,4.97
2019-05-26T09:25:30.842Z,5.37
2019-05-26T09:28:17.960Z,6.50
2019-05-26T09:31:05.265Z,5.50
2019-05-26T09:33:52.068Z,4.70
2019-05-26T09:36:39.270Z,4.65
2019-05-26T09:39:27.145Z,5.03
2019-05-26T09:42:13.958Z,4.57
2019-05-26T09:45:02.891Z,4.55
2019-05-26T09:47:50.642Z,5.20
2019-05-26T09:50:40.836Z,7.90
2019-05-26T09:53:27.842Z,5.05
2019-05-26T09:56:15.243Z,5.05
2019-05-26T09:59:03.176Z,5.53
2019-05-26T10:01:50.923Z,5.45
2019-05-26T10:04:45.026Z,4.90
2019-05-26T10:07:31.759Z,4.65
2019-05-26T10:10:18.749Z,4.62
2019-05-26T10:13:05.506Z,3.33
2019-05-26T10:15:53.041Z,3.78
2019-05-26T10:18:39.558Z,7.03
2019-05-26T10:21:27.744Z,5.10
2019-05-26T10:24:15.410Z,3.12
2019-05-26T10:27:02.296Z,6.40
2019-05-26T10:29:49.464Z,3.40
2019-05-26T10:32:36.251Z,3.25
2019-05-26T10:35:23.092Z,4.75
2019-05-26T10:38:09.867Z,4.30
2019-05-26T10:40:56.635Z,5.57
2019-05-26T10:43:47.302Z,3.75
2019-05-26T10:46:30.053Z,4.30
2019-05-26T10:49:17.119Z,5.18
2019-05-26T10:52:03.916Z,3.92
2019-05-26T10:54:50.889Z,3.70
2019-05-26T10:57:37.578Z,3.03
2019-05-26T11:00:24.426Z,3.12
2019-05-26T11:03:11.504Z,2.50
2019-05-26T11:05:58.097Z,2.75
2019-05-26T11:08:44.867Z,4.80
2019-05-26T11:11:32.091Z,2.17
2019-05-26T11:14:19.389Z,2.90
2019-05-26T11:17:06.023Z,2.75
2019-05-26T11:19:53.387Z,2.28
2019-05-26T11:22:41.367Z,2.75
2019-05-26T11:25:27.984Z,2.92
2019-05-26T11:28:15.303Z,3.30
2019-05-26T11:31:02.513Z,2.50
2019-05-26T11:33:49.241Z,2.28
2019-05-26T11:36:36.252Z,3.10
2019-05-26T11:39:23.252Z,2.17
2019-05-26T11:42:13.350Z,4.12
2019-05-26T11:44:57.559Z,1.90
2019-05-26T11:47:44.298Z,3.78
2019-05-26T11:50:31.665Z,2.25
2019-05-26T11:53:18.534Z,3.30
2019-05-26T11:56:05.389Z,3.00
2019-05-26T11:58:52.600Z,3.62
2019-05-26T12:01:39.972Z,2.55
2019-05-26T12:04:33.347Z,1.60
2019-05-26T12:07:20.065Z,1.55
2019-05-26T12:10:07.353Z,2.90
2019-05-26T12:12:54.526Z,2.50
2019-05-26T12:15:41.309Z,3.00
2019-05-26T12:18:29.296Z,2.97
2019-05-26T12:21:17.265Z,3.72
2019-05-26T12:24:04.740Z,3.58
2019-05-26T12:26:51.871Z,1.98
2019-05-26T12:29:38.944Z,2.08
2019-05-26T12:32:25.671Z,2.97
2019-05-26T12:35:12.318Z,2.83
2019-05-26T12:37:59.127Z,1.55
2019-05-26T12:40:46.736Z,2.25
2019-05-26T12:43:33.979Z,2.58
2019-05-26T12:46:20.907Z,2.12
2019-05-26T12:49:07.628Z,5.70
2019-05-26T12:51:55.014Z,2.70
2019-05-26T12:54:41.745Z,2.15
2019-05-26T12:57:28.515Z,2.45
2019-05-26T13:00:16.301Z,3.47
2019-05-26T13:03:03.395Z,2.33
2019-05-26T13:05:50.169Z,2.03
2019-05-26T13:08:37.360Z,1.67
2019-05-26T13:11:24.750Z,2.85
2019-05-26T13:14:11.440Z,1.70
2019-05-26T13:17:01.401Z,1.40
2019-05-26T13:19:48.022Z,4.05
2019-05-26T13:22:34.911Z,1.30
2019-05-26T13:25:21.937Z,1.70
2019-05-26T13:28:09.211Z,1.98
2019-05-26T13:30:56.380Z,1.75
2019-05-26T13:33:43.391Z,1.65
2019-05-26T13:36:30.612Z,3.67
2019-05-26T13:39:17.966Z,1.60
2019-05-26T13:42:05.473Z,1.70
2019-05-26T13:44:52.860Z,1.30
2019-05-26T13:47:39.669Z,1.12
2019-05-26T13:50:27.094Z,1.45
2019-05-26T13:53:14.081Z,1.20
2019-05-26T13:56:01.276Z,0.80
2019-05-26T13:58:48.211Z,0.68
2019-05-26T14:01:35.349Z,1.90
2019-05-26T14:04:22.804Z,5.28
2019-05-26T14:07:09.598Z,1.87
2019-05-26T14:09:56.730Z,1.80
2019-05-26T14:12:44.051Z,1.17
2019-05-26T14:15:38.232Z,1.35
2019-05-26T14:18:18.396Z,2.17
2019-05-26T14:21:05.495Z,2.53
2019-05-26T14:23:55.755Z,0.75
2019-05-26T14:26:42.585Z,1.00
2019-05-26T14:29:29.614Z,1.75
2019-05-26T14:32:16.303Z,0.80
2019-05-26T14:35:03.749Z,1.87
2019-05-26T14:37:50.696Z,1.77
2019-05-26T14:40:38.056Z,0.62
2019-05-26T14:43:25.075Z,1.10
2019-05-26T14:46:12.211Z,1.10
2019-05-26T14:48:59.589Z,0.82
2019-05-26T14:51:46.683Z,1.27
2019-05-26T14:54:33.775Z,1.17
2019-05-26T14:57:21.558Z,1.25
2019-05-26T15:00:10.900Z,1.40
2019-05-26T15:02:57.838Z,2.58
2019-05-26T15:05:45.054Z,1.05
2019-05-26T15:08:32.104Z,1.27
2019-05-26T15:11:19.032Z,2.05
2019-05-26T15:14:05.864Z,0.90
2019-05-26T15:16:53.240Z,0.95
2019-05-26T15:19:40.123Z,1.15
2019-05-26T15:22:27.080Z,1.12
2019-05-26T15:25:14.179Z,1.37
2019-05-26T15:28:02.539Z,0.80
2019-05-26T15:30:49.308Z,1.20
2019-05-26T15:33:36.939Z,2.05
2019-05-26T15:36:23.540Z,0.95
2019-05-26T15:39:10.778Z,1.37
2019-05-26T15:41:57.806Z,0.80
2019-05-26T15:44:44.819Z,1.65
2019-05-26T15:47:34.582Z,1.67
2019-05-26T15:50:21.577Z,1.17
2019-05-26T15:53:08.915Z,1.35
2019-05-26T15:55:55.682Z,0.70
2019-05-26T15:58:42.802Z,1.08
2019-05-26T16:01:30.177Z,1.25
2019-05-26T16:04:16.992Z,1.10
2019-05-26T16:07:13.402Z,2.47
2019-05-26T16:10:00.196Z,1.17
2019-05-26T16:12:46.828Z,1.95
2019-05-26T16:15:36.654Z,1.17
2019-05-26T16:18:23.234Z,1.20
2019-05-26T16:21:26.692Z,2.75
2019-05-26T16:23:57.460Z,1.92
2019-05-26T16:26:44.241Z,1.33
2019-05-26T16:29:31.457Z,2.47
2019-05-26T16:32:19.097Z,1.50
2019-05-26T16:35:05.134Z,1.33
2019-05-26T16:37:52.216Z,1.48
2019-05-26T16:40:42.356Z,1.30
2019-05-26T16:43:29.042Z,1.33
2019-05-26T16:46:18.761Z,1.87
2019-05-26T16:49:08.960Z,1.17
2019-05-26T16:51:58.980Z,1.48
2019-05-26T16:54:46.341Z,1.45
2019-05-26T16:57:42.906Z,1.25
2019-05-26T17:00:29.845Z,1.60
2019-05-26T17:03:16.987Z,4.60
2019-05-26T17:06:07.898Z,1.17
2019-05-26T17:08:53.395Z,1.50
2019-05-26T17:11:41.018Z,2.67
2019-05-26T17:14:27.847Z,1.55
2019-05-26T17:17:15.753Z,1.58
2019-05-26T17:20:03.167Z,1.55
2019-05-26T17:22:50.190Z,1.37
2019-05-26T17:25:37.199Z,1.40
2019-05-26T17:28:24.572Z,1.90
2019-05-26T17:31:17.705Z,1.55
2019-05-26T17:34:05.305Z,1.77
2019-05-26T17:36:51.748Z,1.42
2019-05-26T17:39:39.251Z,1.65
2019-05-26T17:42:27.674Z,1.30
2019-05-26T17:45:14.501Z,1.40
2019-05-26T17:48:01.335Z,1.40
2019-05-26T17:50:48.277Z,1.60
2019-05-26T17:53:35.316Z,1.30
2019-05-26T17:56:22.487Z,2.83
2019-05-26T17:59:10.184Z,1.83
2019-05-26T18:02:10.908Z,1.17
2019-05-26T18:04:57.716Z,1.70
2019-05-26T18:07:45.017Z,1.95
2019-05-26T18:10:32.109Z,2.70
2019-05-26T18:13:19.302Z,1.67
2019-05-26T18:16:06.291Z,1.55
2019-05-26T18:18:53.507Z,1.35
2019-05-26T18:21:40.416Z,1.60
2019-05-26T18:24:27.159Z,1.80
2019-05-26T18:27:14.099Z,2.95
2019-05-26T18:30:01.006Z,1.60
2019-05-26T18:32:54.060Z,1.40
2019-05-26T18:35:40.838Z,1.60
2019-05-26T18:38:28.004Z,2.10
2019-05-26T18:41:15.052Z,2.72
2019-05-26T18:44:02.449Z,1.62
2019-05-26T18:46:53.204Z,1.48
2019-05-26T18:49:36.941Z,1.40
2019-05-26T18:52:24.516Z,2.70
2019-05-26T18:55:11.466Z,1.73
2019-05-26T18:57:58.674Z,3.58
2019-05-26T19:00:45.594Z,4.30
2019-05-26T19:03:35.966Z,2.25
2019-05-26T19:06:37.229Z,2.30
2019-05-26T19:09:27.493Z,6.95
2019-05-26T19:12:14.915Z,3.95
2019-05-26T19:15:09.231Z,6.37
2019-05-26T19:17:56.575Z,3.58
2019-05-26T19:20:43.641Z,3.25
2019-05-26T19:23:30.852Z,2.25
2019-05-26T19:26:18.028Z,3.92
2019-05-26T19:29:04.758Z,2.30
2019-05-26T19:32:01.644Z,2.65
2019-05-26T19:34:48.790Z,1.70
2019-05-26T19:37:39.125Z,1.40
2019-05-26T19:40:25.935Z,1.60
2019-05-26T19:43:13.133Z,2.10
2019-05-26T19:46:04.268Z,1.70
2019-05-26T19:48:51.591Z,1.20
2019-05-26T19:51:41.926Z,1.70
2019-05-26T19:54:26.543Z,2.53
2019-05-26T19:57:13.650Z,2.12
2019-05-26T20:00:01.596Z,2.37
2019-05-26T20:02:49.082Z,2.95
2019-05-26T20:05:36.219Z,2.08
2019-05-26T20:08:23.958Z,1.83
2019-05-26T20:11:11.369Z,2.03
2019-05-26T20:13:58.090Z,1.52
2019-05-26T20:16:45.490Z,2.10
2019-05-26T20:22:38.037Z,1.70
2019-05-26T20:25:25.030Z,1.50
2019-05-26T20:28:12.065Z,2.00
2019-05-26T20:30:58.603Z,1.40
2019-05-26T20:33:45.393Z,1.77
2019-05-26T20:36:32.624Z,2.35
2019-05-26T20:39:22.960Z,1.73
2019-05-26T20:42:10.183Z,1.92
2019-05-26T20:44:57.152Z,2.20
2019-05-26T20:48:05.778Z,1.30
2019-05-26T20:50:58.453Z,1.85
2019-05-26T20:53:45.299Z,3.20
2019-05-26T20:56:32.444Z,2.28
2019-05-26T20:59:20.143Z,1.80
2019-05-26T21:02:07.040Z,1.67
2019-05-26T21:04:53.824Z,4.47
2019-05-26T21:07:56.470Z,1.55
2019-05-26T21:10:51.799Z,1.95
2019-05-26T21:13:38.547Z,2.10
2019-05-26T21:16:25.577Z,1.55
2019-05-26T21:19:12.885Z,1.65
2019-05-26T21:22:02.579Z,2.20
2019-05-26T21:24:49.379Z,1.55
2019-05-26T21:27:36.484Z,1.98
2019-05-26T21:30:23.726Z,2.90
2019-05-26T21:33:10.342Z,2.40
2019-05-26T21:35:57.147Z,2.75
2019-05-26T21:38:44.430Z,2.67
2019-05-26T21:41:37.364Z,1.58
2019-05-26T21:44:24.581Z,1.85
2019-05-26T21:47:20.602Z,2.35
2019-05-26T21:50:26.953Z,1.65
2019-05-26T21:53:14.149Z,2.03
2019-05-26T21:56:01.134Z,4.05
2019-05-26T21:58:47.932Z,2.03
2019-05-26T22:01:35.418Z,2.72
2019-05-26T22:04:22.688Z,2.22
2019-05-26T22:07:09.988Z,2.28
2019-05-26T22:09:58.952Z,3.62
2019-05-26T22:12:49.046Z,2.62
2019-05-26T22:15:41.457Z,2.10
2019-05-26T22:18:29.786Z,4.60
2019-05-26T22:21:16.730Z,2.28
2019-05-26T22:24:04.857Z,2.50
2019-05-26T22:26:51.641Z,2.35
2019-05-26T22:29:39.071Z,3.10
2019-05-26T22:32:26.361Z,2.97
2019-05-26T22:35:13.043Z,3.50
2019-05-26T22:38:01.043Z,2.95
2019-05-26T22:40:48.472Z,2.78
2019-05-26T22:46:45.174Z,2.55
2019-05-26T22:49:32.189Z,2.40
2019-05-26T22:52:19.103Z,3.08
2019-05-26T22:55:06.174Z,2.58
2019-05-26T22:58:21.039Z,2.47
2019-05-26T23:01:08.453Z,2.30
2019-05-26T23:03:55.477Z,6.70
2019-05-26T23:06:42.162Z,2.85
2019-05-26T23:09:29.359Z,3.53
2019-05-26T23:12:49.133Z,3.75
2019-05-26T23:15:36.252Z,2.50
2019-05-26T23:18:23.490Z,3.80
2019-05-26T23:21:10.511Z,2.65
2019-05-26T23:27:05.952Z,5.75
2019-05-26T23:29:52.830Z,4.53
2019-05-26T23:32:41.132Z,2.58
2019-05-26T23:38:40.664Z,4.65
2019-05-26T23:41:29.088Z,2.85
2019-05-26T23:47:22.618Z,3.20
2019-05-26T23:50:10.597Z,2.95
2019-05-26T23:52:57.941Z,6.05
2019-05-26T23:55:45.872Z,2.67
2019-05-26T23:58:33.893Z,8.10
